Time;durP1;ratioP1;P1;durP2;ratioP2;P2;SDS_P1;SDS_P2;PMS_P1;PMS_P2;Temp;Humidity;BMP_temperature;BMP_pressure;BME280_temperature;BME280_humidity;BME280_pressure;Samples;Min_cycle;Max_cycle;Signal;HPM_P1;HPM_P2
2022/01/15 00:00:15;;;;;;;17.60;6.05;;;8.40;99.90;;;;;;5054563;28;20246;-64
2022/01/15 00:02:42;;;;;;;18.95;6.00;;;8.40;99.90;;;;;;5055073;28;20242;-66
2022/01/15 00:05:10;;;;;;;12.85;5.63;;;8.30;99.90;;;;;;5055438;28;20685;-65
2022/01/15 00:07:38;;;;;;;18.73;6.40;;;8.30;99.90;;;;;;5055414;28;20222;-65
2022/01/15 00:10:08;;;;;;;14.80;6.25;;;8.30;99.90;;;;;;5055457;28;20288;-65
2022/01/15 00:12:39;;;;;;;16.00;6.53;;;8.20;99.90;;;;;;5055350;28;20224;-65
2022/01/15 00:15:08;;;;;;;10.32;6.10;;;8.20;99.90;;;;;;5055475;28;21019;-65
2022/01/15 00:17:46;;;;;;;15.57;5.97;;;8.20;99.90;;;;;;5055301;28;20302;-66
2022/01/15 00:20:16;;;;;;;12.18;5.38;;;8.20;99.90;;;;;;5055301;28;20287;-65
2022/01/15 00:22:44;;;;;;;14.00;5.95;;;8.20;99.90;;;;;;5055450;28;20663;-65
2022/01/15 00:25:12;;;;;;;11.88;5.13;;;8.20;99.90;;;;;;5055080;28;20287;-65
2022/01/15 00:27:39;;;;;;;15.55;5.05;;;8.10;99.90;;;;;;5055430;28;20300;-65
2022/01/15 00:30:08;;;;;;;21.63;6.20;;;8.10;99.90;;;;;;5054918;28;20242;-65
2022/01/15 00:32:35;;;;;;;13.88;4.70;;;8.10;99.90;;;;;;5052214;28;20707;-66
2022/01/15 00:35:03;;;;;;;16.77;6.45;;;8.10;99.90;;;;;;5047307;28;20317;-65
2022/01/15 00:37:31;;;;;;;18.58;6.50;;;8.10;99.90;;;;;;5055001;28;20239;-65
2022/01/15 00:39:59;;;;;;;16.00;5.45;;;8.20;99.90;;;;;;5054766;28;20227;-65
2022/01/15 00:42:29;;;;;;;19.75;5.97;;;8.10;99.90;;;;;;5054689;28;20242;-65
2022/01/15 00:44:57;;;;;;;14.43;4.55;;;8.10;99.90;;;;;;5054742;28;20297;-65
2022/01/15 00:47:25;;;;;;;13.07;5.45;;;8.00;99.90;;;;;;5065302;28;20641;-66
2022/01/15 00:49:52;;;;;;;12.82;4.68;;;8.10;99.90;;;;;;5054381;28;20292;-65
2022/01/15 00:52:20;;;;;;;13.15;5.70;;;8.00;99.90;;;;;;5054661;28;20649;-65
2022/01/15 00:54:46;;;;;;;11.45;5.25;;;8.00;99.90;;;;;;5054917;28;20228;-65
2022/01/15 00:57:13;;;;;;;15.52;5.05;;;8.00;99.90;;;;;;5054269;28;20249;-65
2022/01/15 00:59:41;;;;;;;18.75;6.22;;;8.00;99.90;;;;;;5054426;28;20239;-65
2022/01/15 01:02:08;;;;;;;11.48;5.32;;;7.90;99.90;;;;;;5054393;28;20227;-65
2022/01/15 01:04:35;;;;;;;15.05;5.55;;;7.90;99.90;;;;;;5054763;28;20229;-65
2022/01/15 01:07:02;;;;;;;12.10;4.85;;;7.90;99.90;;;;;;5053801;28;20237;-65
2022/01/15 01:09:43;;;;;;;12.45;4.25;;;7.90;99.90;;;;;;5054198;28;20683;-65
2022/01/15 01:12:24;;;;;;;14.73;5.90;;;7.90;99.90;;;;;;5054234;28;20226;-64
2022/01/15 01:20:31;;;;;;;14.93;5.07;;;7.80;99.90;;;;;;5054480;28;20237;-65
2022/01/15 01:22:58;;;;;;;11.75;5.90;;;7.80;99.90;;;;;;5041492;28;20239;-65
2022/01/15 01:25:31;;;;;;;12.60;4.32;;;7.80;99.90;;;;;;5054306;28;20273;-64
2022/01/15 01:28:05;;;;;;;10.63;4.85;;;7.70;99.90;;;;;;5053591;28;20656;-65
2022/01/15 01:30:39;;;;;;;16.40;4.75;;;7.80;99.90;;;;;;5054162;28;20689;-65
2022/01/15 01:33:18;;;;;;;17.27;4.82;;;7.70;99.90;;;;;;5050852;28;20213;-64
2022/01/15 01:35:49;;;;;;;13.40;4.68;;;7.70;99.90;;;;;;5053623;28;20573;-65
2022/01/15 01:38:25;;;;;;;9.65;5.25;;;7.70;99.90;;;;;;5054045;28;20241;-65
2022/01/15 01:40:52;;;;;;;17.77;5.10;;;7.60;99.90;;;;;;5053380;28;20737;-65
2022/01/15 01:43:44;;;;;;;13.60;5.40;;;7.60;99.90;;;;;;5053672;28;20231;-65
2022/01/15 01:46:19;;;;;;;13.10;5.13;;;7.60;99.90;;;;;;5053467;28;21017;-65
2022/01/15 01:48:46;;;;;;;18.13;6.65;;;7.60;99.90;;;;;;5053980;28;20703;-66
2022/01/15 01:51:21;;;;;;;15.27;4.82;;;7.60;99.90;;;;;;5053427;28;20356;-66
2022/01/15 01:53:48;;;;;;;20.77;4.63;;;7.50;99.90;;;;;;5053701;28;20702;-66
2022/01/15 01:56:16;;;;;;;11.30;4.85;;;7.50;99.90;;;;;;5053195;28;20838;-65
2022/01/15 01:58:43;;;;;;;15.57;5.00;;;7.60;99.90;;;;;;5053671;28;20237;-64
2022/01/15 02:01:09;;;;;;;12.73;4.95;;;7.60;99.90;;;;;;5046727;28;20226;-64
2022/01/15 02:03:38;;;;;;;19.67;5.68;;;7.60;99.90;;;;;;5052578;28;20241;-64
2022/01/15 02:06:05;;;;;;;20.27;4.70;;;7.60;99.90;;;;;;5048549;28;20226;-64
2022/01/15 02:08:34;;;;;;;16.02;4.35;;;7.60;99.90;;;;;;5047479;28;20231;-65
2022/01/15 02:11:03;;;;;;;10.85;4.20;;;7.60;99.90;;;;;;5052961;28;20228;-64
2022/01/15 02:13:30;;;;;;;15.55;5.50;;;7.50;99.90;;;;;;5053433;28;20328;-64
2022/01/15 02:15:57;;;;;;;11.70;4.72;;;7.50;99.90;;;;;;5052991;28;20227;-65
2022/01/15 02:18:24;;;;;;;20.85;5.95;;;7.50;99.90;;;;;;5053137;28;20299;-64
2022/01/15 02:23:44;;;;;;;18.67;4.72;;;7.50;99.90;;;;;;5032914;28;20249;-65
2022/01/15 02:26:14;;;;;;;13.98;4.18;;;7.50;99.90;;;;;;5053300;28;20619;-64
2022/01/15 02:28:42;;;;;;;18.23;6.07;;;7.50;99.90;;;;;;5052687;28;20244;-65
2022/01/15 02:31:11;;;;;;;11.10;5.03;;;7.50;99.90;;;;;;5053125;28;20222;-64
2022/01/15 02:33:39;;;;;;;19.23;6.53;;;7.50;99.90;;;;;;5049582;28;20241;-64
2022/01/15 02:36:11;;;;;;;14.20;4.43;;;7.40;99.90;;;;;;5052964;28;20277;-65
2022/01/15 02:38:38;;;;;;;12.30;6.30;;;7.50;99.90;;;;;;5052749;28;20577;-65
2022/01/15 02:41:05;;;;;;;20.17;6.18;;;7.40;99.90;;;;;;5049104;28;20673;-65
2022/01/15 02:43:33;;;;;;;17.70;5.43;;;7.40;99.90;;;;;;5046014;28;20241;-64
2022/01/15 02:46:18;;;;;;;17.85;7.15;;;7.40;99.90;;;;;;5052532;28;20691;-64
2022/01/15 02:48:46;;;;;;;20.40;7.63;;;7.40;99.90;;;;;;5052544;28;20231;-64
2022/01/15 02:51:14;;;;;;;19.27;7.80;;;7.40;99.90;;;;;;5052647;28;20241;-64
2022/01/15 02:53:42;;;;;;;20.85;9.15;;;7.40;99.90;;;;;;5052219;28;20225;-64
2022/01/15 02:56:09;;;;;;;21.80;8.98;;;7.40;99.90;;;;;;5052689;28;20675;-64
2022/01/15 02:58:36;;;;;;;19.67;7.03;;;7.30;99.90;;;;;;5052602;28;20238;-64
2022/01/15 03:01:06;;;;;;;17.52;7.13;;;7.30;99.90;;;;;;5045404;28;20228;-64
2022/01/15 03:03:33;;;;;;;13.88;6.40;;;7.30;99.90;;;;;;5052662;28;20221;-64
2022/01/15 03:06:00;;;;;;;12.23;4.60;;;7.30;99.90;;;;;;5048015;28;20226;-65
2022/01/15 03:08:28;;;;;;;20.85;8.27;;;7.30;99.90;;;;;;5045426;28;20222;-64
2022/01/15 03:10:55;;;;;;;17.52;5.05;;;7.30;99.90;;;;;;5052064;28;20711;-65
2022/01/15 03:13:21;;;;;;;12.35;4.82;;;7.30;99.90;;;;;;5052173;28;20248;-64
2022/01/15 03:15:48;;;;;;;19.48;5.55;;;7.20;99.90;;;;;;5052113;28;20229;-65
2022/01/15 03:18:15;;;;;;;15.35;5.10;;;7.20;99.90;;;;;;5052528;28;20238;-65
2022/01/15 03:20:42;;;;;;;10.38;5.00;;;7.10;99.90;;;;;;5051929;28;20229;-65
2022/01/15 03:23:08;;;;;;;10.77;4.85;;;7.10;99.90;;;;;;5046771;28;20221;-64
2022/01/15 03:25:37;;;;;;;17.77;5.38;;;7.10;99.90;;;;;;5052477;28;20308;-65
2022/01/15 03:28:06;;;;;;;14.32;4.80;;;7.10;99.90;;;;;;5051990;28;20222;-65
2022/01/15 03:30:33;;;;;;;10.73;4.75;;;7.10;99.90;;;;;;5052213;28;20679;-64
2022/01/15 03:33:00;;;;;;;17.38;4.43;;;7.00;99.90;;;;;;5047805;28;20243;-65
2022/01/15 03:35:27;;;;;;;13.10;4.40;;;7.00;99.90;;;;;;5052193;28;20292;-65
2022/01/15 03:37:54;;;;;;;15.82;4.90;;;7.10;99.90;;;;;;5051645;28;20226;-65
2022/01/15 03:40:21;;;;;;;12.85;4.53;;;7.00;99.90;;;;;;5052133;28;20707;-64
2022/01/15 03:42:49;;;;;;;15.57;6.15;;;7.10;99.90;;;;;;5047924;28;20225;-65
2022/01/15 03:45:17;;;;;;;12.55;4.40;;;7.10;99.90;;;;;;5052214;28;20219;-64
2022/01/15 03:47:45;;;;;;;11.23;5.20;;;7.00;99.90;;;;;;5054984;28;20239;-64
2022/01/15 03:50:13;;;;;;;14.88;4.55;;;7.00;99.90;;;;;;5052076;28;20228;-64
2022/01/15 03:52:40;;;;;;;19.55;4.80;;;7.00;99.90;;;;;;5052030;28;20227;-65
2022/01/15 03:55:09;;;;;;;15.93;4.70;;;6.90;99.90;;;;;;5051654;28;20223;-64
2022/01/15 03:57:37;;;;;;;13.27;5.43;;;6.80;99.90;;;;;;5043996;28;20222;-64
2022/01/15 04:00:08;;;;;;;14.50;4.80;;;6.80;99.90;;;;;;5060144;28;20224;-64
2022/01/15 04:02:35;;;;;;;19.05;4.25;;;6.90;99.90;;;;;;5051893;28;20233;-65
2022/01/15 04:05:02;;;;;;;21.17;4.88;;;6.90;99.90;;;;;;5051489;28;20256;-64
2022/01/15 04:07:29;;;;;;;10.52;5.13;;;6.80;99.90;;;;;;5051455;28;20222;-64
2022/01/15 04:09:55;;;;;;;10.50;4.18;;;6.90;99.90;;;;;;5050421;28;20565;-65
2022/01/15 04:12:22;;;;;;;14.93;5.25;;;6.90;99.90;;;;;;5051877;28;20227;-65
2022/01/15 04:14:49;;;;;;;10.15;4.63;;;6.90;99.90;;;;;;5051705;28;20226;-65
2022/01/15 04:17:17;;;;;;;14.57;5.65;;;6.80;99.90;;;;;;5051836;28;20224;-65
2022/01/15 04:19:44;;;;;;;16.77;4.15;;;6.80;99.90;;;;;;5051457;28;20230;-64
2022/01/15 04:22:11;;;;;;;15.00;4.28;;;6.80;99.90;;;;;;5051747;28;20226;-64
2022/01/15 04:24:37;;;;;;;24.15;7.35;;;6.70;99.90;;;;;;5047228;28;20234;-64
2022/01/15 04:27:05;;;;;;;20.17;6.00;;;6.80;99.90;;;;;;5054189;28;20225;-65
2022/01/15 04:29:33;;;;;;;13.57;5.00;;;6.80;99.90;;;;;;5054249;28;20241;-65
2022/01/15 04:32:00;;;;;;;11.32;5.10;;;6.80;99.90;;;;;;5054498;28;20668;-65
2022/01/15 04:34:31;;;;;;;17.55;5.68;;;6.80;99.90;;;;;;5054682;28;20318;-65
2022/01/15 04:37:05;;;;;;;9.02;4.00;;;6.70;99.90;;;;;;5046682;28;20231;-64
2022/01/15 04:39:32;;;;;;;12.15;4.53;;;6.70;99.90;;;;;;5055013;28;20223;-65
2022/01/15 04:41:59;;;;;;;11.55;4.55;;;6.70;99.90;;;;;;5042620;28;20231;-65
2022/01/15 04:44:25;;;;;;;14.50;4.72;;;6.70;99.90;;;;;;5042109;28;20568;-65
2022/01/15 04:46:53;;;;;;;14.35;5.68;;;6.80;99.90;;;;;;5053445;28;20238;-64
2022/01/15 04:49:20;;;;;;;23.58;5.63;;;6.80;99.90;;;;;;5053878;28;20607;-64
2022/01/15 04:51:48;;;;;;;24.05;7.40;;;6.80;99.90;;;;;;5054615;28;20239;-64
2022/01/15 04:54:15;;;;;;;15.70;4.68;;;6.80;99.90;;;;;;5054220;28;20218;-64
2022/01/15 04:56:42;;;;;;;22.05;5.40;;;6.70;99.90;;;;;;5055086;28;20229;-64
2022/01/15 04:59:10;;;;;;;19.95;7.15;;;6.70;99.90;;;;;;5054804;28;20231;-64
2022/01/15 05:01:37;;;;;;;17.80;6.03;;;6.70;99.90;;;;;;5054949;28;20282;-64
2022/01/15 05:04:04;;;;;;;20.13;6.22;;;6.80;99.90;;;;;;5054562;28;20224;-65
2022/01/15 05:06:31;;;;;;;22.13;7.05;;;6.70;99.90;;;;;;5055101;28;20225;-65
2022/01/15 05:09:04;;;;;;;13.30;4.88;;;6.70;99.90;;;;;;5054385;28;20692;-65
2022/01/15 05:11:43;;;;;;;17.17;6.47;;;6.70;99.90;;;;;;5054771;28;20225;-64
2022/01/15 05:14:11;;;;;;;21.42;8.32;;;6.70;99.90;;;;;;5054630;28;20226;-64
2022/01/15 05:16:37;;;;;;;18.60;6.03;;;6.70;99.90;;;;;;5054703;28;20287;-65
2022/01/15 05:19:04;;;;;;;20.25;6.10;;;6.70;99.90;;;;;;5053954;28;20230;-65
2022/01/15 05:21:32;;;;;;;22.35;7.13;;;6.70;99.90;;;;;;5054773;28;20239;-65
2022/01/15 05:24:00;;;;;;;11.60;5.60;;;6.70;99.90;;;;;;5054066;28;20239;-65
2022/01/15 05:26:27;;;;;;;13.43;5.82;;;6.70;99.90;;;;;;5054646;28;20228;-65
2022/01/15 05:28:53;;;;;;;13.25;6.32;;;6.60;99.90;;;;;;5054215;28;20226;-65
2022/01/15 05:31:20;;;;;;;14.02;4.65;;;6.60;99.90;;;;;;5054412;28;20237;-65
2022/01/15 05:33:47;;;;;;;16.10;6.18;;;6.70;99.90;;;;;;5054411;28;20225;-65
2022/01/15 05:36:14;;;;;;;13.32;5.05;;;6.70;99.90;;;;;;5054128;28;20229;-65
2022/01/15 05:38:40;;;;;;;12.90;5.95;;;6.70;99.90;;;;;;5054140;28;20228;-65
2022/01/15 05:41:09;;;;;;;10.98;5.15;;;6.60;99.90;;;;;;5053844;28;20234;-65
2022/01/15 05:43:35;;;;;;;23.08;6.53;;;6.60;99.90;;;;;;5054281;28;20711;-65
2022/01/15 05:46:02;;;;;;;13.77;5.05;;;6.60;99.90;;;;;;5053763;28;20229;-65
2022/01/15 05:48:29;;;;;;;15.40;6.10;;;6.60;99.90;;;;;;5054331;28;20227;-65
2022/01/15 05:50:56;;;;;;;21.00;6.03;;;6.60;99.90;;;;;;5053809;28;20243;-65
2022/01/15 05:53:24;;;;;;;11.15;5.97;;;6.60;99.90;;;;;;5054079;28;20228;-65
2022/01/15 05:55:51;;;;;;;12.18;5.80;;;6.60;99.90;;;;;;5054054;28;20221;-64
2022/01/15 05:58:19;;;;;;;16.65;7.85;;;6.60;99.90;;;;;;5053490;28;20219;-65
2022/01/15 06:00:45;;;;;;;16.17;5.22;;;6.60;99.90;;;;;;5053890;28;20240;-65
2022/01/15 06:03:12;;;;;;;14.57;5.70;;;6.60;99.90;;;;;;5053554;28;20230;-65
2022/01/15 06:05:39;;;;;;;16.52;5.80;;;6.60;99.90;;;;;;5053676;28;20235;-65
2022/01/15 06:08:06;;;;;;;13.57;6.28;;;6.50;99.90;;;;;;5053369;28;20247;-65
2022/01/15 06:10:34;;;;;;;18.58;7.20;;;6.60;99.90;;;;;;5053938;28;20252;-65
2022/01/15 06:13:01;;;;;;;15.27;5.55;;;6.60;99.90;;;;;;5053381;28;20245;-65
2022/01/15 06:15:29;;;;;;;13.27;5.57;;;6.60;99.90;;;;;;5053733;28;20224;-64
2022/01/15 06:17:56;;;;;;;12.57;5.60;;;6.60;99.90;;;;;;5053633;28;20235;-64
2022/01/15 06:20:23;;;;;;;17.77;6.18;;;6.60;99.90;;;;;;5053399;28;20227;-64
2022/01/15 06:22:50;;;;;;;19.92;6.25;;;6.70;99.90;;;;;;5053400;28;20236;-65
2022/01/15 06:25:16;;;;;;;25.48;7.57;;;6.60;99.90;;;;;;5053113;28;20706;-65
2022/01/15 06:27:43;;;;;;;20.88;6.60;;;6.60;99.90;;;;;;5053445;28;20231;-65
2022/01/15 06:30:11;;;;;;;17.48;5.93;;;6.60;99.90;;;;;;5052957;28;20233;-65
2022/01/15 06:32:39;;;;;;;17.98;6.50;;;6.50;99.90;;;;;;5053576;28;20234;-65
2022/01/15 06:35:08;;;;;;;19.73;6.22;;;6.60;99.90;;;;;;5052884;28;20224;-64
2022/01/15 06:37:35;;;;;;;20.67;6.35;;;6.50;99.90;;;;;;5053147;28;20230;-65
2022/01/15 06:40:02;;;;;;;14.32;6.75;;;6.50;99.90;;;;;;5052821;28;20236;-64
2022/01/15 06:42:29;;;;;;;19.05;7.18;;;6.50;99.90;;;;;;5053199;28;20251;-65
2022/01/15 06:44:56;;;;;;;14.98;7.07;;;6.50;99.90;;;;;;5053326;28;20245;-64
2022/01/15 06:47:23;;;;;;;20.15;7.00;;;6.40;99.90;;;;;;5052749;28;20232;-65
2022/01/15 06:49:51;;;;;;;17.83;7.50;;;6.40;99.90;;;;;;5052640;28;20225;-64
2022/01/15 06:52:20;;;;;;;14.18;7.78;;;6.40;99.90;;;;;;5052558;28;20227;-64
2022/01/15 06:54:47;;;;;;;27.80;7.78;;;6.40;99.90;;;;;;5053052;28;20253;-65
2022/01/15 06:57:14;;;;;;;18.80;7.82;;;6.40;99.90;;;;;;5052486;28;20225;-65
2022/01/15 06:59:44;;;;;;;19.17;8.30;;;6.40;99.90;;;;;;5052903;28;20225;-65
2022/01/15 07:02:11;;;;;;;14.75;9.20;;;6.50;99.90;;;;;;5052351;28;20223;-65
2022/01/15 07:04:38;;;;;;;19.27;8.63;;;6.50;99.90;;;;;;5052754;28;20752;-64
2022/01/15 07:07:06;;;;;;;17.40;6.57;;;6.50;99.90;;;;;;5052485;28;20250;-64
2022/01/15 07:09:35;;;;;;;16.70;7.03;;;6.50;99.90;;;;;;5052674;28;20228;-65
2022/01/15 07:12:02;;;;;;;16.83;7.00;;;6.50;99.90;;;;;;5052412;28;20314;-65
2022/01/15 07:14:28;;;;;;;14.45;7.10;;;6.50;99.90;;;;;;5052731;28;20232;-65
2022/01/15 07:16:55;;;;;;;18.40;8.02;;;6.50;99.90;;;;;;5052682;28;20227;-66
2022/01/15 07:19:25;;;;;;;15.82;6.55;;;6.50;99.90;;;;;;5051886;28;20235;-65
2022/01/15 07:21:52;;;;;;;13.38;7.13;;;6.50;99.90;;;;;;5052619;28;20235;-65
2022/01/15 07:24:20;;;;;;;24.83;9.43;;;6.50;99.90;;;;;;5052170;28;20578;-65
2022/01/15 07:26:49;;;;;;;18.40;9.18;;;6.50;99.90;;;;;;5052514;28;20227;-65
2022/01/15 07:29:16;;;;;;;12.48;6.00;;;6.50;99.90;;;;;;5052293;28;20224;-64
2022/01/15 07:31:45;;;;;;;15.07;6.00;;;6.40;99.90;;;;;;5052498;28;20236;-64
2022/01/15 07:34:12;;;;;;;12.75;6.30;;;6.40;99.90;;;;;;5052087;28;20291;-65
2022/01/15 07:36:39;;;;;;;12.23;6.38;;;6.50;99.90;;;;;;5052679;28;20247;-65
2022/01/15 07:39:08;;;;;;;23.45;8.18;;;6.40;99.90;;;;;;5051978;28;20231;-65
2022/01/15 07:41:36;;;;;;;18.10;8.52;;;6.40;99.90;;;;;;5052451;28;20229;-65
2022/01/15 07:44:04;;;;;;;17.98;6.80;;;6.40;99.90;;;;;;5052460;28;20228;-65
2022/01/15 07:46:31;;;;;;;21.08;7.30;;;6.40;99.90;;;;;;5052265;28;20226;-65
2022/01/15 07:48:57;;;;;;;22.67;8.18;;;6.40;99.90;;;;;;5052364;28;20225;-64
2022/01/15 07:51:24;;;;;;;17.23;8.77;;;6.40;99.90;;;;;;5051977;28;20233;-66
2022/01/15 07:53:51;;;;;;;16.55;6.72;;;6.40;99.90;;;;;;5052299;28;20324;-66
2022/01/15 07:56:18;;;;;;;16.13;8.20;;;6.40;99.90;;;;;;5051876;28;20239;-65
2022/01/15 07:58:46;;;;;;;16.13;6.78;;;6.40;99.90;;;;;;5052554;28;20689;-65
2022/01/15 08:01:13;;;;;;;16.42;6.10;;;6.50;99.90;;;;;;5053437;28;20232;-65
2022/01/15 08:03:40;;;;;;;15.52;5.65;;;6.50;99.90;;;;;;5056248;28;20228;-66
2022/01/15 08:06:08;;;;;;;17.17;7.03;;;6.50;99.90;;;;;;5056323;28;20228;-66
2022/01/15 08:08:35;;;;;;;12.88;5.07;;;6.50;99.90;;;;;;5055808;28;20239;-65
2022/01/15 08:11:02;;;;;;;12.82;6.07;;;6.40;99.90;;;;;;5055996;28;20240;-65
2022/01/15 08:13:30;;;;;;;13.65;5.72;;;6.40;99.90;;;;;;5055589;28;20226;-65
2022/01/15 08:16:01;;;;;;;17.98;7.35;;;6.40;99.90;;;;;;5055898;28;20229;-65
2022/01/15 08:18:28;;;;;;;11.18;6.38;;;6.40;99.90;;;;;;5055427;28;20249;-65
2022/01/15 08:20:55;;;;;;;9.65;6.88;;;6.40;99.90;;;;;;5055843;28;20721;-64
2022/01/15 08:23:22;;;;;;;11.00;6.10;;;6.40;99.90;;;;;;5055155;28;20233;-65
2022/01/15 08:25:49;;;;;;;14.07;6.78;;;6.50;99.90;;;;;;5055855;28;20228;-64
2022/01/15 08:28:16;;;;;;;14.82;6.55;;;6.50;99.90;;;;;;5055321;28;20562;-66
2022/01/15 08:30:43;;;;;;;11.93;8.13;;;6.40;99.90;;;;;;5055614;28;20595;-65
2022/01/15 08:33:11;;;;;;;13.65;6.82;;;6.40;99.90;;;;;;5055692;28;20221;-65
2022/01/15 08:35:38;;;;;;;19.63;8.15;;;6.40;99.90;;;;;;5055308;28;20968;-65
2022/01/15 08:38:05;;;;;;;12.90;6.50;;;6.50;99.90;;;;;;5055343;28;20221;-65
2022/01/15 08:40:33;;;;;;;14.00;6.97;;;6.50;99.90;;;;;;5055027;28;20237;-65
2022/01/15 08:43:00;;;;;;;13.98;6.78;;;6.60;99.90;;;;;;5055374;28;20281;-65
2022/01/15 08:45:27;;;;;;;14.00;6.78;;;6.50;99.90;;;;;;5054997;28;20245;-65
2022/01/15 08:47:54;;;;;;;15.48;9.13;;;6.50;99.90;;;;;;5055528;28;20225;-65
2022/01/15 08:50:23;;;;;;;23.45;11.20;;;6.50;99.90;;;;;;5054706;28;20243;-65
2022/01/15 08:52:51;;;;;;;16.48;8.88;;;6.50;99.90;;;;;;5055195;28;20229;-65
2022/01/15 08:55:20;;;;;;;10.70;7.45;;;6.40;99.90;;;;;;5054794;28;20227;-64
2022/01/15 08:57:47;;;;;;;18.90;9.85;;;6.40;99.90;;;;;;5055068;28;20222;-64
2022/01/15 09:00:17;;;;;;;15.95;8.50;;;6.50;99.90;;;;;;5054994;28;20236;-64
2022/01/15 09:02:44;;;;;;;16.75;8.43;;;6.50;99.90;;;;;;5054947;28;20796;-65
2022/01/15 09:05:11;;;;;;;20.05;8.40;;;6.50;99.90;;;;;;5055014;28;20224;-64
2022/01/15 09:07:39;;;;;;;18.02;8.10;;;6.50;99.90;;;;;;5054423;28;20221;-65
2022/01/15 09:10:07;;;;;;;22.20;10.38;;;6.50;99.90;;;;;;5054845;28;20225;-65
2022/01/15 09:12:35;;;;;;;12.55;7.32;;;6.50;99.90;;;;;;5054082;28;20240;-65
2022/01/15 09:15:02;;;;;;;22.02;8.68;;;6.60;99.90;;;;;;5054779;28;20232;-65
2022/01/15 09:17:29;;;;;;;16.83;7.43;;;6.50;99.90;;;;;;5054545;28;20225;-65
2022/01/15 09:19:56;;;;;;;18.30;8.23;;;6.60;99.90;;;;;;5054452;28;20225;-64
2022/01/15 09:22:24;;;;;;;16.40;6.90;;;6.60;99.90;;;;;;5054184;28;20761;-64
2022/01/15 09:24:52;;;;;;;11.75;5.90;;;6.60;99.90;;;;;;5054531;28;20240;-65
2022/01/15 09:30:15;;;;;;;13.50;7.38;;;6.60;99.90;;;;;;5054509;28;20271;-65
2022/01/15 09:32:46;;;;;;;17.02;7.35;;;6.60;99.90;;;;;;5054623;28;20225;-65
2022/01/15 09:35:15;;;;;;;16.13;7.60;;;6.60;99.90;;;;;;5054068;28;20235;-65
2022/01/15 09:37:42;;;;;;;11.63;7.47;;;6.60;99.90;;;;;;5054281;28;20236;-65
2022/01/15 09:40:12;;;;;;;16.45;7.35;;;6.60;99.90;;;;;;5053768;28;20225;-65
2022/01/15 09:42:40;;;;;;;18.83;6.88;;;6.60;99.90;;;;;;5054413;28;20740;-65
2022/01/15 09:45:09;;;;;;;12.73;7.63;;;6.70;99.90;;;;;;5053723;28;20226;-65
2022/01/15 09:47:36;;;;;;;10.15;6.43;;;6.70;99.90;;;;;;5054259;28;20267;-65
2022/01/15 09:50:06;;;;;;;15.20;6.10;;;6.60;99.90;;;;;;5053806;28;20233;-65
2022/01/15 09:52:33;;;;;;;14.95;7.45;;;6.60;99.90;;;;;;5054079;28;20228;-65
2022/01/15 09:55:00;;;;;;;17.58;6.60;;;6.60;99.90;;;;;;5054118;28;20286;-65
2022/01/15 09:57:29;;;;;;;9.45;5.97;;;6.60;99.90;;;;;;5053683;28;20228;-65
2022/01/15 09:59:56;;;;;;;11.35;7.60;;;6.60;99.90;;;;;;5053982;28;20280;-66
2022/01/15 10:02:23;;;;;;;22.45;10.05;;;6.70;99.90;;;;;;5053459;28;20231;-65
2022/01/15 10:04:50;;;;;;;16.20;7.05;;;6.70;99.90;;;;;;5053958;28;20232;-66
2022/01/15 10:07:19;;;;;;;14.50;6.45;;;6.70;99.90;;;;;;5053341;28;20228;-66
2022/01/15 10:09:48;;;;;;;17.55;8.02;;;6.70;99.90;;;;;;5053661;28;20283;-65
2022/01/15 10:12:25;;;;;;;18.00;8.25;;;6.70;99.90;;;;;;5053360;28;20379;-64
2022/01/15 10:14:57;;;;;;;13.55;8.18;;;6.70;99.90;;;;;;5053813;28;20230;-65
2022/01/15 10:17:26;;;;;;;10.77;6.78;;;6.70;99.90;;;;;;5053258;28;20241;-65
2022/01/15 10:19:53;;;;;;;10.98;6.50;;;6.80;99.90;;;;;;5053378;28;20235;-65
2022/01/15 10:22:22;;;;;;;14.20;6.63;;;6.70;99.90;;;;;;5053114;28;20233;-65
2022/01/15 10:24:55;;;;;;;10.57;5.13;;;6.80;99.90;;;;;;5052713;28;20233;-65
2022/01/15 10:27:29;;;;;;;21.08;7.85;;;6.80;99.90;;;;;;5053111;28;20233;-65
2022/01/15 10:30:01;;;;;;;10.23;7.50;;;6.80;99.90;;;;;;5053328;28;20225;-65
2022/01/15 10:32:30;;;;;;;9.98;6.30;;;6.80;99.90;;;;;;5053081;28;20229;-66
2022/01/15 10:34:58;;;;;;;15.30;7.50;;;6.80;99.90;;;;;;5053296;28;20233;-65
2022/01/15 10:37:28;;;;;;;10.48;6.90;;;6.80;99.90;;;;;;5052764;28;20317;-65
2022/01/15 10:40:02;;;;;;;17.17;7.25;;;6.80;99.90;;;;;;5053091;28;20785;-65
2022/01/15 10:42:29;;;;;;;14.05;6.90;;;6.80;99.90;;;;;;5052831;28;20314;-65
2022/01/15 10:44:59;;;;;;;14.20;7.45;;;6.80;99.90;;;;;;5053074;28;20236;-65
2022/01/15 10:47:28;;;;;;;24.40;8.85;;;6.80;99.90;;;;;;5052809;28;20235;-65
2022/01/15 10:50:01;;;;;;;19.60;8.00;;;6.80;99.90;;;;;;5053024;28;20233;-65
2022/01/15 10:52:29;;;;;;;21.75;17.20;;;6.90;99.90;;;;;;5052480;28;20241;-65
2022/01/15 10:55:02;;;;;;;24.88;11.43;;;6.90;99.90;;;;;;5053017;28;20230;-64
2022/01/15 10:57:33;;;;;;;15.95;9.65;;;6.80;99.90;;;;;;5052598;28;20235;-64
2022/01/15 11:00:06;;;;;;;24.20;10.25;;;6.70;99.90;;;;;;5052808;28;20575;-65
2022/01/15 11:02:33;;;;;;;65.32;41.38;;;6.80;99.90;;;;;;5052649;28;20238;-65
2022/01/15 11:05:00;;;;;;;49.33;32.75;;;6.70;99.90;;;;;;5052845;28;20241;-64
2022/01/15 11:07:27;;;;;;;30.00;15.15;;;6.80;99.90;;;;;;5052257;28;20231;-65
2022/01/15 11:09:54;;;;;;;18.90;12.80;;;6.70;99.90;;;;;;5052755;28;20560;-65
2022/01/15 11:12:27;;;;;;;17.48;10.02;;;6.70;99.90;;;;;;5052438;28;20238;-65
2022/01/15 11:14:54;;;;;;;20.00;9.93;;;6.80;99.90;;;;;;5052675;28;20218;-65
2022/01/15 11:17:22;;;;;;;27.52;17.98;;;6.80;99.90;;;;;;5052346;28;20239;-65
2022/01/15 11:19:53;;;;;;;26.67;19.40;;;6.80;99.90;;;;;;5052553;28;20244;-65
2022/01/15 11:22:22;;;;;;;26.25;17.00;;;6.80;99.90;;;;;;5052192;28;20283;-65
2022/01/15 11:24:50;;;;;;;33.47;19.88;;;6.90;99.90;;;;;;5052501;28;20717;-65
2022/01/15 11:27:18;;;;;;;27.95;18.67;;;6.90;99.90;;;;;;5052207;28;20305;-65
2022/01/15 11:29:48;;;;;;;33.50;15.18;;;6.80;99.90;;;;;;5052582;28;20227;-63
2022/01/15 11:32:17;;;;;;;32.60;16.23;;;6.90;99.90;;;;;;5052055;28;20224;-65
2022/01/15 11:35:00;;;;;;;24.70;15.43;;;6.90;99.90;;;;;;5053653;28;20253;-65
2022/01/15 11:37:27;;;;;;;25.13;14.55;;;7.00;99.90;;;;;;5056303;28;20277;-64
2022/01/15 11:39:55;;;;;;;27.50;16.35;;;7.00;99.90;;;;;;5056535;28;20225;-66
2022/01/15 11:42:27;;;;;;;34.80;19.30;;;7.00;99.90;;;;;;5056200;28;20272;-65
2022/01/15 11:44:54;;;;;;;32.05;17.70;;;7.00;99.90;;;;;;5056615;28;20226;-65
2022/01/15 11:47:25;;;;;;;20.15;12.95;;;7.00;99.90;;;;;;5056025;28;20231;-64
2022/01/15 11:49:57;;;;;;;19.98;12.40;;;7.10;99.90;;;;;;5056308;28;20700;-65
2022/01/15 11:52:34;;;;;;;26.15;14.07;;;7.00;99.90;;;;;;5055876;28;20301;-64
2022/01/15 11:55:24;;;;;;;28.83;13.40;;;7.00;99.90;;;;;;5056521;28;20218;-65
2022/01/15 11:57:58;;;;;;;22.20;15.35;;;7.00;99.90;;;;;;5056700;28;20221;-65
2022/01/15 12:00:33;;;;;;;24.77;13.20;;;7.00;99.90;;;;;;5056099;28;20257;-65
2022/01/15 12:03:02;;;;;;;24.08;15.40;;;7.00;99.90;;;;;;5056182;28;20224;-64
2022/01/15 12:05:36;;;;;;;17.52;12.00;;;7.10;99.90;;;;;;5055593;28;20292;-64
2022/01/15 12:08:30;;;;;;;19.65;12.13;;;7.10;99.90;;;;;;5055999;28;20225;-65
2022/01/15 12:10:57;;;;;;;27.75;13.98;;;7.10;99.90;;;;;;5045781;28;20244;-65
2022/01/15 12:13:26;;;;;;;22.35;11.98;;;7.10;99.90;;;;;;5056085;28;20689;-65
2022/01/15 12:16:15;;;;;;;21.00;12.25;;;7.10;99.90;;;;;;5055285;28;20232;-65
2022/01/15 12:18:46;;;;;;;19.88;11.55;;;7.20;99.90;;;;;;5055712;28;20347;-64
2022/01/15 12:21:55;;;;;;;20.88;12.05;;;7.10;99.90;;;;;;5035426;28;20226;-65
2022/01/15 12:24:44;;;;;;;24.08;13.40;;;7.20;99.90;;;;;;5035628;28;21026;-64
2022/01/15 12:27:15;;;;;;;21.20;10.57;;;7.20;99.90;;;;;;5035503;28;20226;-64
2022/01/15 12:29:42;;;;;;;16.13;9.93;;;7.20;99.90;;;;;;5035776;28;20992;-65
2022/01/15 12:32:10;;;;;;;35.30;20.98;;;7.20;99.90;;;;;;5035199;28;20230;-66
2022/01/15 12:34:37;;;;;;;32.88;19.25;;;7.10;99.90;;;;;;5035651;28;20236;-65
2022/01/15 12:37:05;;;;;;;29.98;19.65;;;7.10;99.90;;;;;;5034967;28;20234;-66
2022/01/15 12:39:35;;;;;;;33.92;21.13;;;7.10;99.90;;;;;;5035694;28;20577;-65
2022/01/15 12:42:02;;;;;;;27.92;14.98;;;7.10;99.90;;;;;;5035053;28;20233;-66
2022/01/15 12:44:28;;;;;;;23.35;12.15;;;7.10;99.90;;;;;;5035590;28;20256;-66
2022/01/15 12:46:57;;;;;;;27.33;14.48;;;7.10;99.90;;;;;;5034703;28;20222;-64
2022/01/15 12:49:36;;;;;;;30.33;19.23;;;7.10;99.90;;;;;;5035070;28;20222;-65
2022/01/15 12:52:14;;;;;;;31.27;19.63;;;7.20;99.90;;;;;;5034898;28;20688;-66
2022/01/15 12:54:41;;;;;;;39.38;27.70;;;7.20;99.90;;;;;;5034799;28;20243;-65
2022/01/15 12:57:09;;;;;;;25.95;16.75;;;7.20;99.90;;;;;;5034799;28;20225;-65
2022/01/15 12:59:38;;;;;;;32.95;14.27;;;7.10;99.90;;;;;;5034783;28;20699;-66
2022/01/15 13:02:05;;;;;;;15.82;10.98;;;7.10;99.90;;;;;;5034508;28;20339;-65
2022/01/15 13:04:32;;;;;;;35.80;21.90;;;7.10;99.90;;;;;;5035215;28;20226;-67